• Join FlightAware (Why Join?)
  • Login
  • US Flag 
12:04PM EDT


 

Airport Tracker/Info


-or-


 

Live Flight TrackerFlight Track Log ✈ SKW6345 ✈ 15-Aug-2013 ✈ KSFO - KBZN

Flight Track Log - Related Links

Times and Time Zones

All times are in EDT time to prevent confusion due to time zone crossing. See the SKW6345 flight status page for this flight to view local times or setup timezone preferences in your user account.

Time Position Orientation Groundspeed Altitude Reporting Facility
EDT Latitude Longitude Course Direction KTS MPH feet Rate Location/Type
11:14AM 37.6500 -122.3333 38° Northeast 185 213 1,900  Level Northern Cal TRACON
11:15AM 37.7000 -122.2833 38° Northeast 251 289 3,800 1,980 Climbing Northern Cal TRACON
11:16AM 37.6343 -122.4221 120° Southeast  Level FlightAware Approximate
11:16AM 37.7500 -122.2167 47° Northeast 273 314 5,900  Level Northern Cal TRACON
11:17AM 37.6804 -122.3030 38° Northeast  Level FlightAware Approximate
11:18AM 37.7822 -122.2012 38° Northeast  Level FlightAware Approximate
11:18AM 37.9028 -122.0806 35° Northeast 297 342 10,600  Level Oakland Center
11:19AM 37.8840 -122.0993 38° Northeast  Level FlightAware Approximate
11:19AM 37.9753 -122.0097 38° Northeast 325 374 11,600  Level Oakland Center
11:20AM 37.9860 -121.9974 38° Northeast  Level FlightAware Approximate
11:20AM 38.0517 -121.9356 37° Northeast 344 396 13,100  Level Oakland Center
11:21AM 38.1300 -121.8586 38° Northeast 355 409 14,400 1,260 Climbing Oakland Center
11:22AM 38.2097 -121.7811 37° Northeast 361 415 15,700 1,140 Climbing Oakland Center
11:24AM 38.2922 -121.6997 38° Northeast 373 429 16,800 1,080 Climbing Oakland Center
11:25AM 38.3911 -121.6031 37° Northeast 375 432 18,000 1,080 Climbing Oakland Center
11:26AM 38.4639 -121.5156 43° Northeast 388 447 19,000 1,020 Climbing Oakland Center
11:27AM 38.5350 -121.3964 53° Northeast 395 455 20,100 1,020 Climbing Oakland Center
11:28AM 38.5992 -121.2800 55° Northeast 401 461 21,200 960 Climbing Oakland Center
11:29AM 38.6797 -121.1783 45° Northeast 409 471 22,100 780 Climbing Oakland Center
11:30AM 38.7664 -121.0756 43° Northeast 412 474 22,900 840 Climbing Oakland Center
11:31AM 38.8514 -120.9742 43° Northeast 415 478 23,900 780 Climbing Oakland Center
11:32AM 38.9358 -120.8711 43° Northeast 417 480 24,500 660 Climbing Oakland Center
11:33AM 39.0214 -120.7675 43° Northeast 423 487 25,300 660 Climbing Oakland Center
11:34AM 39.1067 -120.6636 43° Northeast 422 486 25,900 540 Climbing Oakland Center
11:35AM 39.2106 -120.5369 43° Northeast 428 493 26,500 480 Climbing Oakland Center
11:36AM 39.2981 -120.4303 43° Northeast 433 498 27,000 420 Climbing Oakland Center
11:37AM 39.3872 -120.3217 43° Northeast 437 503 27,400 300 Climbing Oakland Center
11:38AM 39.4764 -120.2142 43° Northeast 440 506 27,700 420 Climbing Oakland Center
11:39AM 39.5606 -120.1086 44° Northeast 444 511 28,300 420 Climbing Oakland Center
11:40AM 39.6497 -119.9989 43° Northeast 443 510 28,600 240 Climbing Oakland Center
11:41AM 39.7411 -119.8847 44° Northeast 452 520 28,900 300 Climbing Oakland Center
11:42AM 39.8478 -119.7503 44° Northeast 452 520 29,300 300 Climbing Oakland Center
11:43AM 39.9383 -119.6364 44° Northeast 450 518 29,600 360 Climbing Oakland Center
11:44AM 40.0300 -119.5222 44° Northeast 452 520 30,100 480 Climbing Oakland Center
11:45AM 40.1183 -119.4086 45° Northeast 444 511 30,600 480 Climbing Oakland Center
11:46AM 40.2069 -119.2961 44° Northeast 443 510 31,200 480 Climbing Oakland Center
11:47AM 40.2950 -119.1833 44° Northeast 442 509 31,700 480 Climbing Oakland Center
11:48AM 40.3831 -119.0706 44° Northeast 442 509 32,200 480 Climbing Oakland Center
11:49AM 40.4703 -118.9578 45° Northeast 439 505 32,700 360 Climbing Oakland Center
11:50AM 40.5581 -118.8444 44° Northeast 442 509 33,000 120 Climbing Oakland Center
11:51AM 40.6472 -118.7308 44° Northeast 445 512 33,000  Level Oakland Center
11:52AM 40.7081 -118.6528 44° Northeast 451 519 33,000  Level Salt Lake Center
11:53AM 40.7953 -118.5392 45° Northeast 457 526 33,000  Level Salt Lake Center
11:54AM 40.8969 -118.4058 45° Northeast 459 528 33,000  Level Salt Lake Center
11:55AM 40.9853 -118.2903 45° Northeast 464 534 33,000  Level Salt Lake Center
11:56AM 41.0881 -118.1536 45° Northeast 466 536 33,000  Level Salt Lake Center
11:57AM 41.1761 -118.0383 45° Northeast 465 535 33,000  Level Salt Lake Center
11:58AM 41.2783 -117.9011 45° Northeast 465 535 33,000  Level Salt Lake Center
11:59AM 41.3644 -117.7869 45° Northeast 460 529 33,000  Level Salt Lake Center
12:00PM 41.4650 -117.6511 45° Northeast 460 529 33,000  Level Salt Lake Center
12:01PM 41.5517 -117.5350 45° Northeast 459 528 33,000  Level Salt Lake Center
12:02PM 41.6508 -117.3983 46° Northeast 458 527 33,000  Level Salt Lake Center
12:03PM 41.7372 -117.2797 46° Northeast 464 534 33,000  Level Salt Lake Center
12:04PM 41.8219 -117.1611 46° Northeast 458 527 33,000  Level Salt Lake Center
12:05PM 41.9206 -117.0269 45° Northeast 452 520 33,000  Level Salt Lake Center
12:06PM 42.0044 -116.9103 46° Northeast 453 521 33,000  Level Salt Lake Center
12:07PM 42.1033 -116.7756 45° Northeast 453 521 33,000  Level Salt Lake Center
12:08PM 42.1931 -116.6500 46° Northeast 455 524 33,000  Level Salt Lake Center
12:09PM 42.2844 -116.5222 46° Northeast 453 521 33,000  Level Salt Lake Center
12:10PM 42.3761 -116.3944 46° Northeast 454 522 33,000  Level Salt Lake Center
12:11PM 42.4667 -116.2661 46° Northeast 453 521 33,000  Level Salt Lake Center
12:12PM 42.5583 -116.1372 46° Northeast 455 524 33,000  Level Salt Lake Center
12:13PM 42.6419 -116.0175 46° Northeast 454 522 33,000  Level Salt Lake Center
12:14PM 42.7317 -115.8886 47° Northeast 452 520 33,000  Level Salt Lake Center
12:16PM 42.8219 -115.7586 47° Northeast 454 522 33,000  Level Salt Lake Center
12:17PM 42.9119 -115.6292 46° Northeast 454 522 33,000  Level Salt Lake Center
12:18PM 43.0019 -115.4992 47° Northeast 454 522 33,000  Level Salt Lake Center
12:19PM 43.0919 -115.3686 47° Northeast 453 521 33,000  Level Salt Lake Center
12:20PM 43.1811 -115.2386 47° Northeast 451 519 33,000  Level Salt Lake Center
12:21PM 43.2708 -115.1078 47° Northeast 449 517 33,000  Level Salt Lake Center
12:22PM 43.3586 -114.9775 47° Northeast 447 514 33,000  Level Salt Lake Center
12:23PM 43.4472 -114.8467 47° Northeast 449 517 33,000  Level Salt Lake Center
12:24PM 43.5281 -114.7247 48° Northeast 449 517 33,000  Level Salt Lake Center
12:25PM 43.6225 -114.5842 47° Northeast 448 516 33,000  Level Salt Lake Center
12:26PM 43.7036 -114.4622 47° Northeast 450 518 33,000  Level Salt Lake Center
12:27PM 43.7958 -114.3272 47° Northeast 450 518 33,000  Level Salt Lake Center
12:28PM 43.8833 -114.1931 48° Northeast 452 520 33,000  Level Salt Lake Center
12:29PM 43.9717 -114.0592 47° Northeast 452 520 33,000  Level Salt Lake Center
12:30PM 44.0561 -113.9308 47° Northeast 449 517 33,000  Level Salt Lake Center
12:31PM 44.1306 -113.8050 50° Northeast 441 507 33,000  Level Salt Lake Center
12:32PM 44.2253 -113.6617 47° Northeast 447 514 33,000  Level Salt Lake Center
12:33PM 44.3050 -113.5394 48° Northeast 446 513 33,000  Level Salt Lake Center
12:35PM 44.4783 -113.2728 48° Northeast 445 512 33,000  Level Salt Lake Center
12:36PM 44.5669 -113.1281 49° Northeast 441 507 33,000 -120 Level Salt Lake Center
12:37PM 44.6464 -113.0028 48° Northeast 445 512 32,800 -960 Descending Salt Lake Center
12:38PM 44.7461 -112.8603 45° Northeast 454 522 31,100 -1,920 Descending Salt Lake Center
12:39PM 44.8414 -112.7336 43° Northeast 477 549 28,900 -2,760 Descending Salt Lake Center
12:40PM 44.9331 -112.6097 44° Northeast 478 550 25,500 -3,600 Descending Salt Lake Center
12:41PM 45.0342 -112.4703 44° Northeast 459 528 21,500 -3,600 Descending Salt Lake Center
12:42PM 45.1178 -112.3556 44° Northeast 445 512 18,100 -3,480 Descending Salt Lake Center
12:43PM 45.2083 -112.2261 45° Northeast 422 486 14,400 -2,040 Descending Salt Lake Center
12:44PM 45.2872 -112.1167 44° Northeast 414 476 14,000 -240 Descending Salt Lake Center
12:45PM 45.3658 -112.0058 45° Northeast 415 478 14,000  Level Salt Lake Center
12:47PM 45.4644 -111.8681 44° Northeast 414 476 14,000 -300 Level Salt Lake Center
12:48PM 45.5442 -111.7550 45° Northeast 408 470 13,500 -1,020 Descending Salt Lake Center
12:49PM 45.6158 -111.6531 45° Northeast 373 429 12,000 -1,020 Descending Salt Lake Center
12:50PM 45.6892 -111.5500 44° Northeast 368 423 11,400 -1,260 Descending Salt Lake Center
12:51PM 45.7511 -111.4611 45° Northeast 333 383 9,400 -1,920 Descending Salt Lake Center
12:52PM 45.8111 -111.3761 45° Northeast 312 359 7,500 -1,200 Descending Salt Lake Center
12:53PM 45.8575 -111.2994 49° Northeast 267 307 7,000 -780 Descending Salt Lake Center
12:54PM 45.8400 -111.2397 113° Southeast 201 231 6,000 -1,020 Descending Salt Lake Center
12:55PM 45.8050 -111.1903 135° Southeast 163 188 4,900 -1,080 Descending Salt Lake Center